sensor_id;sensor_type;location;lat;lon;timestamp;P1;durP1;ratioP1;P2;durP2;ratioP2
79027;SDS011;68427;48.476;19.102;2023-03-16T00:00:14;8.65;;;7.93;;
79027;SDS011;68427;48.476;19.102;2023-03-16T00:02:40;7.15;;;6.13;;
79027;SDS011;68427;48.476;19.102;2023-03-16T00:05:07;9.68;;;8.82;;
79027;SDS011;68427;48.476;19.102;2023-03-16T00:07:33;8.85;;;7.75;;
79027;SDS011;68427;48.476;19.102;2023-03-16T00:09:59;5.63;;;3.67;;
79027;SDS011;68427;48.476;19.102;2023-03-16T00:12:25;6.00;;;3.28;;
79027;SDS011;68427;48.476;19.102;2023-03-16T00:14:52;8.98;;;8.15;;
79027;SDS011;68427;48.476;19.102;2023-03-16T00:17:18;8.27;;;7.57;;
79027;SDS011;68427;48.476;19.102;2023-03-16T00:19:45;4.65;;;2.95;;
79027;SDS011;68427;48.476;19.102;2023-03-16T00:22:11;8.43;;;7.72;;
79027;SDS011;68427;48.476;19.102;2023-03-16T00:24:39;8.32;;;7.80;;
79027;SDS011;68427;48.476;19.102;2023-03-16T00:27:07;10.38;;;9.70;;
79027;SDS011;68427;48.476;19.102;2023-03-16T00:29:33;5.88;;;3.05;;
79027;SDS011;68427;48.476;19.102;2023-03-16T00:32:00;8.15;;;7.13;;
79027;SDS011;68427;48.476;19.102;2023-03-16T00:34:27;7.22;;;6.57;;
79027;SDS011;68427;48.476;19.102;2023-03-16T00:36:54;4.25;;;2.80;;
79027;SDS011;68427;48.476;19.102;2023-03-16T00:39:19;9.30;;;8.45;;
79027;SDS011;68427;48.476;19.102;2023-03-16T00:41:46;8.52;;;7.32;;
79027;SDS011;68427;48.476;19.102;2023-03-16T00:44:12;3.25;;;2.85;;
79027;SDS011;68427;48.476;19.102;2023-03-16T00:46:38;9.80;;;9.25;;
79027;SDS011;68427;48.476;19.102;2023-03-16T00:49:05;4.63;;;3.10;;
79027;SDS011;68427;48.476;19.102;2023-03-16T00:51:30;7.90;;;7.25;;
79027;SDS011;68427;48.476;19.102;2023-03-16T00:53:58;6.97;;;6.35;;
79027;SDS011;68427;48.476;19.102;2023-03-16T00:56:23;7.00;;;2.95;;
79027;SDS011;68427;48.476;19.102;2023-03-16T00:58:49;7.93;;;3.90;;
79027;SDS011;68427;48.476;19.102;2023-03-16T01:01:15;5.55;;;4.07;;
79027;SDS011;68427;48.476;19.102;2023-03-16T01:03:43;5.68;;;3.10;;
79027;SDS011;68427;48.476;19.102;2023-03-16T01:06:10;6.03;;;2.70;;
79027;SDS011;68427;48.476;19.102;2023-03-16T01:08:37;9.35;;;8.75;;
79027;SDS011;68427;48.476;19.102;2023-03-16T01:11:04;7.25;;;3.47;;
79027;SDS011;68427;48.476;19.102;2023-03-16T01:13:31;9.93;;;9.32;;
79027;SDS011;68427;48.476;19.102;2023-03-16T01:15:57;9.25;;;8.60;;
79027;SDS011;68427;48.476;19.102;2023-03-16T01:18:22;7.57;;;6.90;;
79027;SDS011;68427;48.476;19.102;2023-03-16T01:20:49;8.70;;;8.10;;
79027;SDS011;68427;48.476;19.102;2023-03-16T01:23:16;9.82;;;9.25;;
79027;SDS011;68427;48.476;19.102;2023-03-16T01:25:42;8.93;;;8.13;;
79027;SDS011;68427;48.476;19.102;2023-03-16T01:28:16;8.63;;;7.85;;
79027;SDS011;68427;48.476;19.102;2023-03-16T01:30:43;8.25;;;7.57;;
79027;SDS011;68427;48.476;19.102;2023-03-16T01:33:08;8.02;;;7.30;;
79027;SDS011;68427;48.476;19.102;2023-03-16T01:35:35;3.47;;;2.58;;
79027;SDS011;68427;48.476;19.102;2023-03-16T01:38:00;4.85;;;3.20;;
79027;SDS011;68427;48.476;19.102;2023-03-16T01:40:27;9.57;;;8.68;;
79027;SDS011;68427;48.476;19.102;2023-03-16T01:42:58;3.78;;;3.17;;
79027;SDS011;68427;48.476;19.102;2023-03-16T01:48:32;9.40;;;8.57;;
79027;SDS011;68427;48.476;19.102;2023-03-16T01:51:01;8.95;;;8.23;;
79027;SDS011;68427;48.476;19.102;2023-03-16T01:53:29;8.77;;;8.20;;
79027;SDS011;68427;48.476;19.102;2023-03-16T01:55:58;3.13;;;2.60;;
79027;SDS011;68427;48.476;19.102;2023-03-16T01:58:27;4.38;;;2.70;;
79027;SDS011;68427;48.476;19.102;2023-03-16T02:00:54;8.15;;;7.57;;
79027;SDS011;68427;48.476;19.102;2023-03-16T02:03:22;5.10;;;3.50;;
79027;SDS011;68427;48.476;19.102;2023-03-16T02:05:50;7.45;;;6.90;;
79027;SDS011;68427;48.476;19.102;2023-03-16T02:08:21;6.40;;;3.60;;
79027;SDS011;68427;48.476;19.102;2023-03-16T02:10:49;5.20;;;2.67;;
79027;SDS011;68427;48.476;19.102;2023-03-16T02:13:20;8.77;;;8.18;;
79027;SDS011;68427;48.476;19.102;2023-03-16T02:18:12;6.65;;;2.78;;
79027;SDS011;68427;48.476;19.102;2023-03-16T02:20:40;4.82;;;3.25;;
79027;SDS011;68427;48.476;19.102;2023-03-16T02:23:11;9.27;;;7.05;;
79027;SDS011;68427;48.476;19.102;2023-03-16T02:25:43;7.93;;;7.05;;
79027;SDS011;68427;48.476;19.102;2023-03-16T02:28:18;5.68;;;2.85;;
79027;SDS011;68427;48.476;19.102;2023-03-16T02:30:50;4.70;;;3.85;;
79027;SDS011;68427;48.476;19.102;2023-03-16T02:33:17;8.50;;;7.75;;
79027;SDS011;68427;48.476;19.102;2023-03-16T02:35:45;7.93;;;7.43;;
79027;SDS011;68427;48.476;19.102;2023-03-16T02:38:11;5.97;;;3.35;;
79027;SDS011;68427;48.476;19.102;2023-03-16T02:40:37;8.90;;;8.25;;
79027;SDS011;68427;48.476;19.102;2023-03-16T02:43:04;8.35;;;7.65;;
79027;SDS011;68427;48.476;19.102;2023-03-16T02:45:34;8.15;;;6.95;;
79027;SDS011;68427;48.476;19.102;2023-03-16T02:48:06;10.35;;;9.57;;
79027;SDS011;68427;48.476;19.102;2023-03-16T02:50:41;7.55;;;6.80;;
79027;SDS011;68427;48.476;19.102;2023-03-16T02:53:11;8.68;;;7.97;;
79027;SDS011;68427;48.476;19.102;2023-03-16T02:55:37;7.50;;;7.00;;
79027;SDS011;68427;48.476;19.102;2023-03-16T02:58:02;9.68;;;8.30;;
79027;SDS011;68427;48.476;19.102;2023-03-16T03:00:28;10.48;;;9.88;;
79027;SDS011;68427;48.476;19.102;2023-03-16T03:02:54;7.55;;;6.68;;
79027;SDS011;68427;48.476;19.102;2023-03-16T03:05:21;5.88;;;2.70;;
79027;SDS011;68427;48.476;19.102;2023-03-16T03:07:47;10.07;;;9.13;;
79027;SDS011;68427;48.476;19.102;2023-03-16T03:10:13;5.80;;;3.72;;
79027;SDS011;68427;48.476;19.102;2023-03-16T03:12:39;12.75;;;11.82;;
79027;SDS011;68427;48.476;19.102;2023-03-16T03:15:05;5.88;;;3.70;;
79027;SDS011;68427;48.476;19.102;2023-03-16T03:17:32;10.70;;;9.80;;
79027;SDS011;68427;48.476;19.102;2023-03-16T03:19:58;9.20;;;8.23;;
79027;SDS011;68427;48.476;19.102;2023-03-16T03:22:27;8.88;;;8.18;;
79027;SDS011;68427;48.476;19.102;2023-03-16T03:24:53;8.35;;;3.25;;
79027;SDS011;68427;48.476;19.102;2023-03-16T03:27:19;9.15;;;8.18;;
79027;SDS011;68427;48.476;19.102;2023-03-16T03:29:46;9.40;;;5.45;;
79027;SDS011;68427;48.476;19.102;2023-03-16T03:32:12;8.90;;;7.80;;
79027;SDS011;68427;48.476;19.102;2023-03-16T03:34:38;7.32;;;4.68;;
79027;SDS011;68427;48.476;19.102;2023-03-16T03:37:04;11.57;;;10.63;;
79027;SDS011;68427;48.476;19.102;2023-03-16T03:39:31;8.07;;;3.47;;
79027;SDS011;68427;48.476;19.102;2023-03-16T03:41:56;4.25;;;3.25;;
79027;SDS011;68427;48.476;19.102;2023-03-16T03:44:22;12.48;;;11.40;;
79027;SDS011;68427;48.476;19.102;2023-03-16T03:46:48;7.05;;;3.95;;
79027;SDS011;68427;48.476;19.102;2023-03-16T03:49:15;5.45;;;3.60;;
79027;SDS011;68427;48.476;19.102;2023-03-16T03:51:41;5.50;;;3.88;;
79027;SDS011;68427;48.476;19.102;2023-03-16T03:54:07;5.00;;;4.22;;
79027;SDS011;68427;48.476;19.102;2023-03-16T03:56:34;13.35;;;12.30;;
79027;SDS011;68427;48.476;19.102;2023-03-16T03:59:00;6.85;;;4.85;;
79027;SDS011;68427;48.476;19.102;2023-03-16T04:01:26;7.07;;;3.72;;
79027;SDS011;68427;48.476;19.102;2023-03-16T04:03:52;9.68;;;9.07;;
79027;SDS011;68427;48.476;19.102;2023-03-16T04:06:18;9.32;;;8.52;;
79027;SDS011;68427;48.476;19.102;2023-03-16T04:08:43;9.35;;;8.45;;
79027;SDS011;68427;48.476;19.102;2023-03-16T04:11:09;10.95;;;10.23;;
79027;SDS011;68427;48.476;19.102;2023-03-16T04:13:37;8.38;;;7.78;;
79027;SDS011;68427;48.476;19.102;2023-03-16T04:16:03;5.88;;;4.18;;
79027;SDS011;68427;48.476;19.102;2023-03-16T04:18:29;7.50;;;4.63;;
79027;SDS011;68427;48.476;19.102;2023-03-16T04:21:03;8.93;;;8.18;;
79027;SDS011;68427;48.476;19.102;2023-03-16T04:23:30;11.05;;;9.45;;
79027;SDS011;68427;48.476;19.102;2023-03-16T04:25:57;11.27;;;10.45;;
79027;SDS011;68427;48.476;19.102;2023-03-16T04:28:23;7.03;;;4.78;;
79027;SDS011;68427;48.476;19.102;2023-03-16T04:30:52;10.30;;;9.45;;
79027;SDS011;68427;48.476;19.102;2023-03-16T04:35:44;6.65;;;3.63;;
79027;SDS011;68427;48.476;19.102;2023-03-16T04:38:10;4.55;;;3.63;;
79027;SDS011;68427;48.476;19.102;2023-03-16T04:40:36;7.38;;;6.13;;
79027;SDS011;68427;48.476;19.102;2023-03-16T04:43:02;6.55;;;3.50;;
79027;SDS011;68427;48.476;19.102;2023-03-16T04:45:28;10.32;;;9.55;;
79027;SDS011;68427;48.476;19.102;2023-03-16T04:47:55;9.20;;;8.30;;
79027;SDS011;68427;48.476;19.102;2023-03-16T04:50:20;9.40;;;8.57;;
79027;SDS011;68427;48.476;19.102;2023-03-16T04:52:46;6.97;;;5.45;;
79027;SDS011;68427;48.476;19.102;2023-03-16T04:55:12;10.02;;;5.07;;
79027;SDS011;68427;48.476;19.102;2023-03-16T04:57:38;5.90;;;4.22;;
79027;SDS011;68427;48.476;19.102;2023-03-16T05:00:04;5.68;;;3.25;;
79027;SDS011;68427;48.476;19.102;2023-03-16T05:02:44;10.65;;;8.55;;
79027;SDS011;68427;48.476;19.102;2023-03-16T05:05:11;10.90;;;4.45;;
79027;SDS011;68427;48.476;19.102;2023-03-16T05:07:37;6.07;;;4.25;;
79027;SDS011;68427;48.476;19.102;2023-03-16T05:10:03;12.65;;;11.55;;
79027;SDS011;68427;48.476;19.102;2023-03-16T05:12:29;10.38;;;9.50;;
79027;SDS011;68427;48.476;19.102;2023-03-16T05:14:55;11.20;;;5.45;;
79027;SDS011;68427;48.476;19.102;2023-03-16T05:17:21;10.02;;;5.63;;
79027;SDS011;68427;48.476;19.102;2023-03-16T05:19:47;10.90;;;9.77;;
79027;SDS011;68427;48.476;19.102;2023-03-16T05:22:14;8.82;;;8.00;;
79027;SDS011;68427;48.476;19.102;2023-03-16T05:24:40;5.88;;;4.22;;
79027;SDS011;68427;48.476;19.102;2023-03-16T05:27:06;10.23;;;7.75;;
79027;SDS011;68427;48.476;19.102;2023-03-16T05:29:32;12.80;;;12.00;;
79027;SDS011;68427;48.476;19.102;2023-03-16T05:31:58;9.15;;;8.32;;
79027;SDS011;68427;48.476;19.102;2023-03-16T05:34:24;12.13;;;11.35;;
79027;SDS011;68427;48.476;19.102;2023-03-16T05:36:51;7.53;;;6.28;;
79027;SDS011;68427;48.476;19.102;2023-03-16T05:39:18;7.47;;;4.82;;
79027;SDS011;68427;48.476;19.102;2023-03-16T05:41:44;4.60;;;3.10;;
79027;SDS011;68427;48.476;19.102;2023-03-16T05:44:10;5.15;;;3.50;;
79027;SDS011;68427;48.476;19.102;2023-03-16T05:46:36;5.07;;;3.47;;
79027;SDS011;68427;48.476;19.102;2023-03-16T05:49:02;11.20;;;10.45;;
79027;SDS011;68427;48.476;19.102;2023-03-16T05:51:28;8.57;;;7.50;;
79027;SDS011;68427;48.476;19.102;2023-03-16T05:53:54;7.88;;;7.28;;
79027;SDS011;68427;48.476;19.102;2023-03-16T05:56:25;8.65;;;8.05;;
79027;SDS011;68427;48.476;19.102;2023-03-16T05:58:51;9.45;;;8.75;;
79027;SDS011;68427;48.476;19.102;2023-03-16T06:01:18;6.80;;;3.72;;
79027;SDS011;68427;48.476;19.102;2023-03-16T06:03:45;10.68;;;9.57;;
79027;SDS011;68427;48.476;19.102;2023-03-16T06:06:11;13.80;;;12.60;;
79027;SDS011;68427;48.476;19.102;2023-03-16T06:08:37;8.73;;;7.53;;
79027;SDS011;68427;48.476;19.102;2023-03-16T06:11:03;8.70;;;7.97;;
79027;SDS011;68427;48.476;19.102;2023-03-16T06:13:30;9.75;;;8.13;;
79027;SDS011;68427;48.476;19.102;2023-03-16T06:15:55;8.52;;;7.72;;
79027;SDS011;68427;48.476;19.102;2023-03-16T06:18:21;9.63;;;8.77;;
79027;SDS011;68427;48.476;19.102;2023-03-16T06:20:47;9.55;;;8.63;;
79027;SDS011;68427;48.476;19.102;2023-03-16T06:23:13;9.32;;;8.68;;
79027;SDS011;68427;48.476;19.102;2023-03-16T06:25:39;5.88;;;4.22;;
79027;SDS011;68427;48.476;19.102;2023-03-16T06:28:05;5.28;;;3.80;;
79027;SDS011;68427;48.476;19.102;2023-03-16T06:30:32;6.50;;;4.70;;
79027;SDS011;68427;48.476;19.102;2023-03-16T06:32:58;7.93;;;3.35;;
79027;SDS011;68427;48.476;19.102;2023-03-16T06:35:24;11.07;;;3.95;;
79027;SDS011;68427;48.476;19.102;2023-03-16T06:37:50;9.63;;;8.93;;
79027;SDS011;68427;48.476;19.102;2023-03-16T06:40:15;3.10;;;2.65;;
79027;SDS011;68427;48.476;19.102;2023-03-16T06:42:41;7.00;;;4.07;;
79027;SDS011;68427;48.476;19.102;2023-03-16T06:45:08;7.18;;;6.57;;
79027;SDS011;68427;48.476;19.102;2023-03-16T06:47:36;4.53;;;2.70;;
79027;SDS011;68427;48.476;19.102;2023-03-16T06:50:02;5.45;;;3.35;;
79027;SDS011;68427;48.476;19.102;2023-03-16T06:52:29;5.75;;;3.28;;
79027;SDS011;68427;48.476;19.102;2023-03-16T06:54:55;3.80;;;3.03;;
79027;SDS011;68427;48.476;19.102;2023-03-16T06:57:22;3.47;;;2.03;;
79027;SDS011;68427;48.476;19.102;2023-03-16T06:59:48;2.83;;;2.13;;
79027;SDS011;68427;48.476;19.102;2023-03-16T07:02:15;8.77;;;8.07;;
79027;SDS011;68427;48.476;19.102;2023-03-16T07:04:42;7.22;;;6.35;;
79027;SDS011;68427;48.476;19.102;2023-03-16T07:07:08;5.93;;;5.53;;
79027;SDS011;68427;48.476;19.102;2023-03-16T07:09:34;3.95;;;3.63;;
79027;SDS011;68427;48.476;19.102;2023-03-16T07:11:59;6.47;;;5.88;;
79027;SDS011;68427;48.476;19.102;2023-03-16T07:14:25;5.47;;;2.58;;
79027;SDS011;68427;48.476;19.102;2023-03-16T07:16:51;3.30;;;2.60;;
79027;SDS011;68427;48.476;19.102;2023-03-16T07:19:17;3.33;;;1.67;;
79027;SDS011;68427;48.476;19.102;2023-03-16T07:21:44;3.38;;;2.30;;
79027;SDS011;68427;48.476;19.102;2023-03-16T07:24:10;2.75;;;1.88;;
79027;SDS011;68427;48.476;19.102;2023-03-16T07:26:37;3.25;;;1.38;;
79027;SDS011;68427;48.476;19.102;2023-03-16T07:29:02;3.58;;;2.30;;
79027;SDS011;68427;48.476;19.102;2023-03-16T07:31:31;4.63;;;1.88;;
79027;SDS011;68427;48.476;19.102;2023-03-16T07:33:57;3.63;;;3.28;;
79027;SDS011;68427;48.476;19.102;2023-03-16T07:36:24;3.47;;;2.03;;
79027;SDS011;68427;48.476;19.102;2023-03-16T07:38:51;3.03;;;2.17;;
79027;SDS011;68427;48.476;19.102;2023-03-16T07:41:16;4.40;;;1.70;;
79027;SDS011;68427;48.476;19.102;2023-03-16T07:43:42;3.53;;;1.42;;
79027;SDS011;68427;48.476;19.102;2023-03-16T07:46:08;2.97;;;2.15;;
79027;SDS011;68427;48.476;19.102;2023-03-16T07:48:37;4.97;;;1.73;;
79027;SDS011;68427;48.476;19.102;2023-03-16T07:51:03;2.95;;;1.58;;
79027;SDS011;68427;48.476;19.102;2023-03-16T07:53:29;6.25;;;5.88;;
79027;SDS011;68427;48.476;19.102;2023-03-16T07:55:56;3.53;;;1.60;;
79027;SDS011;68427;48.476;19.102;2023-03-16T07:58:21;2.60;;;1.58;;
79027;SDS011;68427;48.476;19.102;2023-03-16T08:00:47;2.42;;;1.30;;
79027;SDS011;68427;48.476;19.102;2023-03-16T08:03:13;2.92;;;1.80;;
79027;SDS011;68427;48.476;19.102;2023-03-16T08:05:39;2.90;;;2.10;;
79027;SDS011;68427;48.476;19.102;2023-03-16T08:08:05;2.85;;;2.05;;
79027;SDS011;68427;48.476;19.102;2023-03-16T08:10:33;5.00;;;2.20;;
79027;SDS011;68427;48.476;19.102;2023-03-16T08:13:03;3.88;;;1.58;;
79027;SDS011;68427;48.476;19.102;2023-03-16T08:15:29;3.83;;;1.92;;
79027;SDS011;68427;48.476;19.102;2023-03-16T08:17:57;4.50;;;2.63;;
79027;SDS011;68427;48.476;19.102;2023-03-16T08:20:24;3.25;;;2.08;;
79027;SDS011;68427;48.476;19.102;2023-03-16T08:22:50;4.25;;;2.13;;
79027;SDS011;68427;48.476;19.102;2023-03-16T08:25:16;2.95;;;1.70;;
79027;SDS011;68427;48.476;19.102;2023-03-16T08:27:44;3.72;;;2.53;;
79027;SDS011;68427;48.476;19.102;2023-03-16T08:30:13;3.38;;;1.40;;
79027;SDS011;68427;48.476;19.102;2023-03-16T08:32:39;4.60;;;1.77;;
79027;SDS011;68427;48.476;19.102;2023-03-16T08:35:06;3.70;;;1.67;;
79027;SDS011;68427;48.476;19.102;2023-03-16T08:37:33;5.13;;;1.88;;
79027;SDS011;68427;48.476;19.102;2023-03-16T08:39:59;3.15;;;1.75;;
79027;SDS011;68427;48.476;19.102;2023-03-16T08:42:25;2.83;;;1.70;;
79027;SDS011;68427;48.476;19.102;2023-03-16T08:47:20;3.78;;;3.47;;
79027;SDS011;68427;48.476;19.102;2023-03-16T08:49:47;10.25;;;4.07;;
79027;SDS011;68427;48.476;19.102;2023-03-16T08:52:13;8.60;;;2.58;;
79027;SDS011;68427;48.476;19.102;2023-03-16T08:54:40;6.70;;;3.13;;
79027;SDS011;68427;48.476;19.102;2023-03-16T08:57:06;4.97;;;2.28;;
79027;SDS011;68427;48.476;19.102;2023-03-16T08:59:33;2.95;;;1.30;;
79027;SDS011;68427;48.476;19.102;2023-03-16T09:01:59;3.55;;;1.95;;
79027;SDS011;68427;48.476;19.102;2023-03-16T09:04:26;3.05;;;1.10;;
79027;SDS011;68427;48.476;19.102;2023-03-16T09:06:52;3.30;;;1.83;;
79027;SDS011;68427;48.476;19.102;2023-03-16T09:09:18;3.15;;;1.73;;
79027;SDS011;68427;48.476;19.102;2023-03-16T09:11:44;3.72;;;1.38;;
79027;SDS011;68427;48.476;19.102;2023-03-16T09:14:11;4.38;;;1.33;;
79027;SDS011;68427;48.476;19.102;2023-03-16T09:16:37;2.35;;;1.20;;
79027;SDS011;68427;48.476;19.102;2023-03-16T09:19:03;3.20;;;2.33;;
79027;SDS011;68427;48.476;19.102;2023-03-16T09:21:31;5.65;;;1.73;;
79027;SDS011;68427;48.476;19.102;2023-03-16T09:23:59;3.92;;;1.92;;
79027;SDS011;68427;48.476;19.102;2023-03-16T09:26:25;4.15;;;1.38;;
79027;SDS011;68427;48.476;19.102;2023-03-16T09:28:52;3.40;;;1.23;;
79027;SDS011;68427;48.476;19.102;2023-03-16T09:31:18;3.22;;;1.42;;
79027;SDS011;68427;48.476;19.102;2023-03-16T09:33:44;2.47;;;2.00;;
79027;SDS011;68427;48.476;19.102;2023-03-16T09:36:11;3.05;;;1.55;;
79027;SDS011;68427;48.476;19.102;2023-03-16T09:38:38;2.90;;;1.73;;
79027;SDS011;68427;48.476;19.102;2023-03-16T09:46:24;4.03;;;2.20;;
79027;SDS011;68427;48.476;19.102;2023-03-16T09:48:52;3.08;;;1.55;;
79027;SDS011;68427;48.476;19.102;2023-03-16T09:51:21;5.22;;;2.15;;
79027;SDS011;68427;48.476;19.102;2023-03-16T09:54:01;2.05;;;1.52;;
79027;SDS011;68427;48.476;19.102;2023-03-16T09:56:32;4.22;;;1.48;;
79027;SDS011;68427;48.476;19.102;2023-03-16T09:59:04;3.38;;;1.50;;
79027;SDS011;68427;48.476;19.102;2023-03-16T10:01:37;2.13;;;0.80;;
79027;SDS011;68427;48.476;19.102;2023-03-16T10:04:10;3.25;;;1.70;;
79027;SDS011;68427;48.476;19.102;2023-03-16T10:06:43;1.83;;;1.48;;
79027;SDS011;68427;48.476;19.102;2023-03-16T10:09:19;3.05;;;1.33;;
79027;SDS011;68427;48.476;19.102;2023-03-16T10:11:53;3.17;;;1.08;;
79027;SDS011;68427;48.476;19.102;2023-03-16T10:14:22;2.83;;;1.45;;
79027;SDS011;68427;48.476;19.102;2023-03-16T10:16:53;1.75;;;0.85;;
79027;SDS011;68427;48.476;19.102;2023-03-16T10:19:27;2.72;;;1.65;;
79027;SDS011;68427;48.476;19.102;2023-03-16T10:21:58;1.98;;;0.85;;
79027;SDS011;68427;48.476;19.102;2023-03-16T10:24:31;2.80;;;1.15;;
79027;SDS011;68427;48.476;19.102;2023-03-16T10:27:06;1.85;;;0.82;;
79027;SDS011;68427;48.476;19.102;2023-03-16T10:29:38;4.10;;;1.05;;
79027;SDS011;68427;48.476;19.102;2023-03-16T10:32:10;2.40;;;1.13;;
79027;SDS011;68427;48.476;19.102;2023-03-16T10:34:38;2.72;;;1.27;;
79027;SDS011;68427;48.476;19.102;2023-03-16T10:37:03;3.92;;;1.10;;
79027;SDS011;68427;48.476;19.102;2023-03-16T10:39:36;1.60;;;1.17;;
79027;SDS011;68427;48.476;19.102;2023-03-16T10:42:08;2.20;;;1.05;;
79027;SDS011;68427;48.476;19.102;2023-03-16T10:44:40;2.53;;;1.02;;
79027;SDS011;68427;48.476;19.102;2023-03-16T10:47:06;3.65;;;1.55;;
79027;SDS011;68427;48.476;19.102;2023-03-16T10:49:41;2.47;;;1.13;;
79027;SDS011;68427;48.476;19.102;2023-03-16T10:52:14;3.92;;;1.85;;
79027;SDS011;68427;48.476;19.102;2023-03-16T10:54:48;4.25;;;1.42;;
79027;SDS011;68427;48.476;19.102;2023-03-16T10:57:20;3.55;;;1.88;;
79027;SDS011;68427;48.476;19.102;2023-03-16T10:59:50;2.97;;;1.90;;
79027;SDS011;68427;48.476;19.102;2023-03-16T11:02:17;1.73;;;0.80;;
79027;SDS011;68427;48.476;19.102;2023-03-16T11:04:46;3.05;;;1.10;;
79027;SDS011;68427;48.476;19.102;2023-03-16T11:07:16;2.72;;;1.48;;
79027;SDS011;68427;48.476;19.102;2023-03-16T11:09:43;1.90;;;1.08;;
79027;SDS011;68427;48.476;19.102;2023-03-16T11:12:14;1.90;;;1.15;;
79027;SDS011;68427;48.476;19.102;2023-03-16T11:14:45;2.13;;;1.58;;
79027;SDS011;68427;48.476;19.102;2023-03-16T11:17:14;4.85;;;1.13;;
79027;SDS011;68427;48.476;19.102;2023-03-16T11:19:44;2.63;;;1.15;;
79027;SDS011;68427;48.476;19.102;2023-03-16T11:22:19;3.85;;;1.50;;
79027;SDS011;68427;48.476;19.102;2023-03-16T11:24:48;3.15;;;1.02;;
79027;SDS011;68427;48.476;19.102;2023-03-16T11:27:20;2.28;;;1.25;;
79027;SDS011;68427;48.476;19.102;2023-03-16T11:30:00;3.50;;;2.00;;
79027;SDS011;68427;48.476;19.102;2023-03-16T11:32:30;3.67;;;1.60;;
79027;SDS011;68427;48.476;19.102;2023-03-16T11:35:00;2.33;;;1.42;;
79027;SDS011;68427;48.476;19.102;2023-03-16T11:37:32;2.65;;;1.08;;
79027;SDS011;68427;48.476;19.102;2023-03-16T11:40:16;2.67;;;1.63;;
79027;SDS011;68427;48.476;19.102;2023-03-16T11:43:01;3.25;;;1.35;;
79027;SDS011;68427;48.476;19.102;2023-03-16T11:45:34;6.28;;;2.35;;
79027;SDS011;68427;48.476;19.102;2023-03-16T11:50:57;3.17;;;1.52;;
79027;SDS011;68427;48.476;19.102;2023-03-16T11:53:41;3.08;;;1.40;;
79027;SDS011;68427;48.476;19.102;2023-03-16T11:56:17;2.78;;;1.23;;
79027;SDS011;68427;48.476;19.102;2023-03-16T11:59:02;3.05;;;1.77;;
79027;SDS011;68427;48.476;19.102;2023-03-16T12:01:44;2.63;;;1.83;;
79027;SDS011;68427;48.476;19.102;2023-03-16T12:04:21;3.03;;;1.08;;
79027;SDS011;68427;48.476;19.102;2023-03-16T12:06:58;2.53;;;1.85;;
79027;SDS011;68427;48.476;19.102;2023-03-16T12:09:41;1.60;;;1.17;;
79027;SDS011;68427;48.476;19.102;2023-03-16T12:12:26;2.30;;;0.95;;
79027;SDS011;68427;48.476;19.102;2023-03-16T12:15:06;4.13;;;1.80;;
79027;SDS011;68427;48.476;19.102;2023-03-16T12:17:45;4.22;;;1.42;;
79027;SDS011;68427;48.476;19.102;2023-03-16T12:20:16;6.03;;;1.67;;
79027;SDS011;68427;48.476;19.102;2023-03-16T12:22:44;4.38;;;1.38;;
79027;SDS011;68427;48.476;19.102;2023-03-16T12:25:16;4.43;;;1.45;;
79027;SDS011;68427;48.476;19.102;2023-03-16T12:27:46;3.63;;;1.75;;
79027;SDS011;68427;48.476;19.102;2023-03-16T12:30:26;3.38;;;0.73;;
79027;SDS011;68427;48.476;19.102;2023-03-16T12:33:01;3.35;;;1.58;;
79027;SDS011;68427;48.476;19.102;2023-03-16T12:35:35;2.03;;;1.05;;
79027;SDS011;68427;48.476;19.102;2023-03-16T12:38:13;2.65;;;1.48;;
79027;SDS011;68427;48.476;19.102;2023-03-16T12:43:32;3.35;;;2.60;;
79027;SDS011;68427;48.476;19.102;2023-03-16T12:46:09;3.90;;;1.70;;
79027;SDS011;68427;48.476;19.102;2023-03-16T12:48:39;3.08;;;1.27;;
79027;SDS011;68427;48.476;19.102;2023-03-16T12:51:09;1.50;;;1.20;;
79027;SDS011;68427;48.476;19.102;2023-03-16T12:53:40;2.63;;;1.50;;
79027;SDS011;68427;48.476;19.102;2023-03-16T12:56:08;2.30;;;1.15;;
79027;SDS011;68427;48.476;19.102;2023-03-16T12:58:38;2.05;;;1.33;;
79027;SDS011;68427;48.476;19.102;2023-03-16T13:01:09;1.77;;;1.08;;
79027;SDS011;68427;48.476;19.102;2023-03-16T13:03:37;4.80;;;1.70;;
79027;SDS011;68427;48.476;19.102;2023-03-16T13:06:03;3.40;;;1.42;;
79027;SDS011;68427;48.476;19.102;2023-03-16T13:08:39;2.95;;;1.25;;
79027;SDS011;68427;48.476;19.102;2023-03-16T13:11:07;1.70;;;1.40;;
79027;SDS011;68427;48.476;19.102;2023-03-16T13:13:35;3.15;;;1.65;;
79027;SDS011;68427;48.476;19.102;2023-03-16T13:16:22;1.80;;;1.08;;
79027;SDS011;68427;48.476;19.102;2023-03-16T13:18:51;2.65;;;1.30;;
79027;SDS011;68427;48.476;19.102;2023-03-16T13:21:18;2.15;;;1.25;;
79027;SDS011;68427;48.476;19.102;2023-03-16T13:23:54;3.33;;;1.50;;
79027;SDS011;68427;48.476;19.102;2023-03-16T13:26:25;2.55;;;1.42;;
79027;SDS011;68427;48.476;19.102;2023-03-16T13:31:47;3.58;;;3.20;;
79027;SDS011;68427;48.476;19.102;2023-03-16T13:34:13;1.85;;;1.00;;
79027;SDS011;68427;48.476;19.102;2023-03-16T13:36:44;2.80;;;1.35;;
79027;SDS011;68427;48.476;19.102;2023-03-16T13:39:13;2.45;;;1.30;;
79027;SDS011;68427;48.476;19.102;2023-03-16T13:41:53;3.08;;;1.17;;
79027;SDS011;68427;48.476;19.102;2023-03-16T13:44:20;3.13;;;1.08;;
79027;SDS011;68427;48.476;19.102;2023-03-16T13:46:49;3.08;;;1.50;;
79027;SDS011;68427;48.476;19.102;2023-03-16T13:49:15;1.35;;;1.15;;
79027;SDS011;68427;48.476;19.102;2023-03-16T13:51:42;2.83;;;1.30;;
79027;SDS011;68427;48.476;19.102;2023-03-16T13:54:19;4.07;;;1.05;;
79027;SDS011;68427;48.476;19.102;2023-03-16T13:56:51;1.67;;;1.58;;
79027;SDS011;68427;48.476;19.102;2023-03-16T13:59:19;2.45;;;1.33;;
79027;SDS011;68427;48.476;19.102;2023-03-16T14:01:46;3.10;;;1.00;;
79027;SDS011;68427;48.476;19.102;2023-03-16T14:04:15;2.47;;;1.30;;
79027;SDS011;68427;48.476;19.102;2023-03-16T14:06:53;2.65;;;1.77;;
79027;SDS011;68427;48.476;19.102;2023-03-16T14:09:21;4.00;;;1.52;;
79027;SDS011;68427;48.476;19.102;2023-03-16T14:11:50;4.57;;;3.90;;
79027;SDS011;68427;48.476;19.102;2023-03-16T14:14:16;1.80;;;1.42;;
79027;SDS011;68427;48.476;19.102;2023-03-16T14:16:48;3.75;;;1.33;;
79027;SDS011;68427;48.476;19.102;2023-03-16T14:19:16;2.47;;;2.17;;
79027;SDS011;68427;48.476;19.102;2023-03-16T14:21:46;1.92;;;1.05;;
79027;SDS011;68427;48.476;19.102;2023-03-16T14:24:17;3.33;;;1.40;;
79027;SDS011;68427;48.476;19.102;2023-03-16T14:26:53;2.92;;;1.42;;
79027;SDS011;68427;48.476;19.102;2023-03-16T14:29:19;2.28;;;1.35;;
79027;SDS011;68427;48.476;19.102;2023-03-16T14:31:48;2.55;;;1.60;;
79027;SDS011;68427;48.476;19.102;2023-03-16T14:34:20;3.42;;;1.30;;
79027;SDS011;68427;48.476;19.102;2023-03-16T14:37:03;3.75;;;1.60;;
79027;SDS011;68427;48.476;19.102;2023-03-16T14:39:29;2.60;;;1.30;;
79027;SDS011;68427;48.476;19.102;2023-03-16T14:41:55;4.55;;;0.98;;
79027;SDS011;68427;48.476;19.102;2023-03-16T14:44:21;2.45;;;1.55;;
79027;SDS011;68427;48.476;19.102;2023-03-16T14:46:52;2.95;;;1.10;;
79027;SDS011;68427;48.476;19.102;2023-03-16T14:49:23;4.85;;;4.47;;
79027;SDS011;68427;48.476;19.102;2023-03-16T14:51:52;2.63;;;1.13;;
79027;SDS011;68427;48.476;19.102;2023-03-16T14:54:22;1.13;;;0.80;;
79027;SDS011;68427;48.476;19.102;2023-03-16T14:56:48;2.65;;;1.85;;
79027;SDS011;68427;48.476;19.102;2023-03-16T14:59:15;2.75;;;1.40;;
79027;SDS011;68427;48.476;19.102;2023-03-16T15:01:41;3.47;;;1.92;;
79027;SDS011;68427;48.476;19.102;2023-03-16T15:04:09;3.13;;;2.88;;